createdAt,value
2023-04-18T00:00:40.339Z,790.3
2023-04-18T00:02:24.056Z,791.8
2023-04-18T00:04:07.735Z,790.4
2023-04-18T00:05:51.448Z,785.7
2023-04-18T00:07:35.148Z,779.2
2023-04-18T00:09:18.871Z,774.6
2023-04-18T00:11:02.539Z,772.5
2023-04-18T00:12:46.306Z,771.4
2023-04-18T00:14:29.966Z,770.4
2023-04-18T00:16:13.647Z,767.2
2023-04-18T00:17:57.363Z,765.7
2023-04-18T00:19:41.039Z,765.5
2023-04-18T00:21:24.750Z,762.3
2023-04-18T00:23:08.459Z,761
2023-04-18T00:24:52.163Z,757.9
2023-04-18T00:26:35.940Z,753.9
2023-04-18T00:28:19.606Z,749.1
2023-04-18T00:30:03.266Z,748.1
2023-04-18T00:32:05.086Z,746.9
2023-04-18T00:33:30.672Z,747.6
2023-04-18T00:35:14.376Z,748.3
2023-04-18T00:36:58.071Z,749.1
2023-04-18T00:38:41.772Z,748.1
2023-04-18T00:40:25.483Z,747.9
2023-04-18T00:42:09.173Z,745.9
2023-04-18T00:43:52.870Z,741.6
2023-04-18T00:45:36.579Z,735.2
2023-04-18T00:47:20.284Z,732.8
2023-04-18T00:49:03.976Z,733.4
2023-04-18T00:50:47.664Z,731
2023-04-18T00:52:31.374Z,729.6
2023-04-18T00:54:15.063Z,727.2
2023-04-18T00:55:58.790Z,726.7
2023-04-18T00:57:42.523Z,726.4
2023-04-18T00:59:26.222Z,727.2
2023-04-18T01:01:09.952Z,726.4
2023-04-18T01:02:53.670Z,722.6
2023-04-18T01:04:37.353Z,720
2023-04-18T01:08:04.748Z,721.6
2023-04-18T01:09:48.453Z,719.1
2023-04-18T01:11:32.216Z,714.8
2023-04-18T01:13:15.818Z,712.1
2023-04-18T01:14:59.558Z,710.1
2023-04-18T01:16:43.215Z,706.6
2023-04-18T01:18:26.936Z,704.4
2023-04-18T01:20:10.642Z,702.9
2023-04-18T01:21:54.341Z,702.5
2023-04-18T01:23:38.023Z,702.5
2023-04-18T01:25:21.703Z,701.2
2023-04-18T01:27:05.451Z,699.7
2023-04-18T01:28:49.121Z,693.8
2023-04-18T01:30:32.840Z,691.1
2023-04-18T01:32:16.528Z,696
2023-04-18T01:34:00.208Z,698.1
2023-04-18T01:35:43.915Z,698.3
2023-04-18T01:37:27.639Z,693.2
2023-04-18T01:39:11.337Z,689.6
2023-04-18T01:40:55.036Z,687.4
2023-04-18T01:42:38.726Z,685.1
2023-04-18T01:44:22.443Z,681.4
2023-04-18T01:46:06.153Z,681.6
2023-04-18T01:47:49.840Z,682
2023-04-18T01:49:33.531Z,678.7
2023-04-18T01:51:17.237Z,677.5
2023-04-18T01:53:00.948Z,677.5
2023-04-18T01:54:44.652Z,674.6
2023-04-18T01:56:28.346Z,672.3
2023-04-18T01:58:12.060Z,670.7
2023-04-18T01:59:55.751Z,667.7
2023-04-18T02:01:39.450Z,668.4
2023-04-18T02:03:23.157Z,668.6
2023-04-18T02:05:06.862Z,668.5
2023-04-18T02:06:50.558Z,668.5
2023-04-18T02:08:34.255Z,671.6
2023-04-18T02:10:17.967Z,671.6
2023-04-18T02:12:01.661Z,676.8
2023-04-18T02:13:45.377Z,677.4
2023-04-18T02:15:29.063Z,671.4
2023-04-18T02:17:12.752Z,671.7
2023-04-18T02:18:56.463Z,671.7
2023-04-18T02:20:40.176Z,669.2
2023-04-18T02:22:23.872Z,669.4
2023-04-18T02:24:07.586Z,668.5
2023-04-18T02:25:51.274Z,664.6
2023-04-18T02:27:34.986Z,661.4
2023-04-18T02:29:18.689Z,660.7
2023-04-18T02:31:02.406Z,656.8
2023-04-18T02:32:46.116Z,655.4
2023-04-18T02:34:29.806Z,654.1
2023-04-18T02:36:13.492Z,654.4
2023-04-18T02:37:57.214Z,651.3
2023-04-18T02:39:40.898Z,651.3
2023-04-18T02:41:24.601Z,648.5
2023-04-18T02:43:08.316Z,648.4
2023-04-18T02:44:52.007Z,646.5
2023-04-18T02:46:35.725Z,644.3
2023-04-18T02:48:19.399Z,642.7
2023-04-18T02:50:03.117Z,639.7
2023-04-18T02:51:46.829Z,636.7
2023-04-18T02:53:30.498Z,637.5
2023-04-18T02:55:14.231Z,639.5
2023-04-18T02:56:57.923Z,640.3
2023-04-18T02:58:41.633Z,636.5
2023-04-18T03:00:25.330Z,635
2023-04-18T03:02:09.026Z,636.2
2023-04-18T03:03:52.733Z,638.1
2023-04-18T03:05:36.437Z,639
2023-04-18T03:07:20.139Z,640.1
2023-04-18T03:09:03.841Z,636.9
2023-04-18T03:10:47.535Z,636.2
2023-04-18T03:12:31.247Z,634.2
2023-04-18T03:14:14.952Z,634.8
2023-04-18T03:15:58.634Z,634.8
2023-04-18T03:17:42.321Z,632.6
2023-04-18T03:19:26.036Z,632.2
2023-04-18T03:21:09.756Z,631.6
2023-04-18T03:22:53.446Z,627
2023-04-18T03:24:37.130Z,623.7
2023-04-18T03:26:20.844Z,622.4
2023-04-18T03:28:04.546Z,622.7
2023-04-18T03:29:48.238Z,621.8
2023-04-18T03:31:31.961Z,620.1
2023-04-18T03:33:15.646Z,619.1
2023-04-18T03:36:43.061Z,619.7
2023-04-18T03:38:26.777Z,618.8
2023-04-18T03:40:10.469Z,617.7
2023-04-18T03:41:54.171Z,616.1
2023-04-18T03:43:37.877Z,614.5
2023-04-18T03:45:21.566Z,614.5
2023-04-18T03:47:05.279Z,611.8
2023-04-18T03:48:49.011Z,609.2
2023-04-18T03:50:32.696Z,611.5
2023-04-18T03:52:16.369Z,612
2023-04-18T03:54:00.066Z,607.4
2023-04-18T03:55:43.789Z,608.5
2023-04-18T03:57:27.498Z,609.1
2023-04-18T03:59:11.196Z,608
2023-04-18T04:00:54.912Z,608
2023-04-18T04:02:38.601Z,609.5
2023-04-18T04:06:06.001Z,606
2023-04-18T04:07:49.705Z,604
2023-04-18T04:09:33.400Z,600.5
2023-04-18T04:11:17.096Z,599.8
2023-04-18T04:13:00.796Z,601.5
2023-04-18T04:14:44.514Z,600.7
2023-04-18T04:16:28.216Z,600.8
2023-04-18T04:18:11.914Z,601.6
2023-04-18T04:19:55.627Z,602.2
2023-04-18T04:21:39.305Z,602.7
2023-04-18T04:23:23.001Z,602.1
2023-04-18T04:25:06.717Z,597.6
2023-04-18T04:26:50.445Z,597.2
2023-04-18T04:28:34.106Z,595.6
2023-04-18T04:30:17.810Z,596.3
2023-04-18T04:32:01.525Z,596.4
2023-04-18T04:33:45.238Z,592.6
2023-04-18T04:35:28.930Z,589.3
2023-04-18T04:37:12.609Z,587.1
2023-04-18T04:38:56.339Z,585.8
2023-04-18T04:40:40.047Z,586.5
2023-04-18T04:42:23.788Z,588.6
2023-04-18T04:44:07.513Z,589.4
2023-04-18T04:45:51.131Z,587
2023-04-18T04:47:34.838Z,583.7
2023-04-18T04:49:18.559Z,580.6
2023-04-18T04:51:02.228Z,581.5
2023-04-18T04:52:45.948Z,581.2
2023-04-18T04:54:29.637Z,577
2023-04-18T04:56:13.358Z,575.8
2023-04-18T04:57:57.041Z,575.9
2023-04-18T04:59:40.752Z,576.4
2023-04-18T05:01:24.460Z,578.3
2023-04-18T05:03:08.161Z,578.9
2023-04-18T05:04:51.837Z,575.4
2023-04-18T05:06:35.550Z,576.5
2023-04-18T05:08:19.250Z,577.3
2023-04-18T05:10:02.957Z,579.9
2023-04-18T05:11:46.669Z,579
2023-04-18T05:13:30.374Z,579.6
2023-04-18T05:15:14.068Z,581.4
2023-04-18T05:16:57.765Z,582.1
2023-04-18T05:18:41.515Z,583.6
2023-04-18T05:20:25.171Z,582.6
2023-04-18T05:22:08.913Z,582.3
2023-04-18T05:23:52.581Z,582.6
2023-04-18T05:25:36.269Z,580.6
2023-04-18T05:27:19.667Z,580
2023-04-18T05:29:03.357Z,575.9
2023-04-18T05:30:47.076Z,573.9
2023-04-18T05:32:30.762Z,572.9
2023-04-18T05:34:14.496Z,573.1
2023-04-18T05:35:58.174Z,572.7
2023-04-18T05:37:41.882Z,572.6
2023-04-18T05:39:25.589Z,572.2
2023-04-18T05:41:09.337Z,568.9
2023-04-18T05:42:52.983Z,566.5
2023-04-18T05:44:36.685Z,564
2023-04-18T05:46:20.391Z,564.6
2023-04-18T05:48:04.122Z,564.7
2023-04-18T05:49:47.796Z,565
2023-04-18T05:51:31.482Z,565.6
2023-04-18T05:53:15.197Z,565.4
2023-04-18T05:54:58.908Z,567.2
2023-04-18T05:56:42.601Z,564.5
2023-04-18T05:58:26.307Z,562.5
2023-04-18T06:00:10.038Z,563.1
2023-04-18T06:01:53.714Z,563.5
2023-04-18T06:03:37.393Z,563.4
2023-04-18T06:05:21.177Z,564.9
2023-04-18T06:07:04.836Z,565.6
2023-04-18T06:08:48.515Z,568.8
2023-04-18T06:10:32.208Z,572
2023-04-18T06:12:16.018Z,570.7
2023-04-18T06:13:59.611Z,569.1
2023-04-18T06:15:43.315Z,570.1
2023-04-18T06:17:27.029Z,568.6
2023-04-18T06:19:10.792Z,567.1
2023-04-18T06:20:54.449Z,566
2023-04-18T06:22:38.133Z,566.2
2023-04-18T06:24:21.892Z,561.8
2023-04-18T06:26:05.544Z,561.1
2023-04-18T06:27:49.344Z,558.7
2023-04-18T06:29:45.463Z,559.3
2023-04-18T06:31:16.786Z,560.7
2023-04-18T06:33:00.341Z,560
2023-04-18T06:34:44.067Z,560.6
2023-04-18T06:36:27.847Z,558.5
2023-04-18T06:38:11.602Z,557.3
2023-04-18T06:41:38.990Z,555
2023-04-18T06:43:22.574Z,555.6
2023-04-18T06:45:06.411Z,554.7
2023-04-18T06:46:50.019Z,554
2023-04-18T06:48:33.754Z,554.3
2023-04-18T06:50:17.511Z,552.7
2023-04-18T06:52:01.173Z,552.5
2023-04-18T06:53:44.936Z,551.6
2023-04-18T06:55:28.531Z,554.9
2023-04-18T06:57:12.218Z,552.5
2023-04-18T06:58:55.954Z,551.1
2023-04-18T07:00:39.736Z,547
2023-04-18T07:02:23.328Z,545.9
2023-04-18T07:04:07.082Z,547.1
2023-04-18T07:05:50.752Z,546.1
2023-04-18T07:07:34.395Z,544.8
2023-04-18T07:09:18.095Z,544.4
2023-04-18T07:11:01.782Z,545.1
2023-04-18T07:12:45.490Z,546
2023-04-18T07:14:29.223Z,544.8
2023-04-18T07:16:12.896Z,543.9
2023-04-18T07:17:56.626Z,544.7
2023-04-18T07:19:40.429Z,546.5
2023-04-18T07:21:24.124Z,549.7
2023-04-18T07:23:07.761Z,552.8
2023-04-18T07:24:51.443Z,552.8
2023-04-18T07:26:35.116Z,555
2023-04-18T07:28:18.818Z,558.2
2023-04-18T07:30:02.483Z,563.4
2023-04-18T07:31:46.193Z,575.2
2023-04-18T07:33:29.917Z,584
2023-04-18T07:35:13.641Z,593.6
2023-04-18T07:36:57.359Z,604
2023-04-18T07:38:41.037Z,615.7
2023-04-18T07:40:24.850Z,642.9
2023-04-18T07:42:08.422Z,667
2023-04-18T07:43:52.101Z,684.9
2023-04-18T07:45:35.930Z,692.3
2023-04-18T07:47:19.548Z,700.6
2023-04-18T07:49:03.242Z,703.5
2023-04-18T07:50:46.949Z,712.2
2023-04-18T07:52:30.761Z,719.6
2023-04-18T07:54:14.348Z,722.9
2023-04-18T07:55:58.131Z,731.3
2023-04-18T07:57:41.923Z,735.8
2023-04-18T07:59:25.527Z,740.9
2023-04-18T08:01:09.364Z,742.7
2023-04-18T08:02:52.857Z,750.2
2023-04-18T08:04:36.716Z,758
2023-04-18T08:06:20.242Z,768.4
2023-04-18T08:08:03.964Z,775.5
2023-04-18T08:09:47.735Z,782
2023-04-18T08:11:31.451Z,788.3
2023-04-18T08:13:15.125Z,794.7
2023-04-18T08:14:58.787Z,799
2023-04-18T08:16:42.488Z,804.1
2023-04-18T08:18:26.194Z,807.5
2023-04-18T08:20:09.889Z,812.9
2023-04-18T08:21:53.583Z,819.1
2023-04-18T08:23:37.289Z,823
2023-04-18T08:25:21.018Z,833.5
2023-04-18T08:27:04.751Z,841.9
2023-04-18T08:28:48.455Z,847.9
2023-04-18T08:30:32.159Z,850.7
2023-04-18T08:32:15.893Z,854.1
2023-04-18T08:33:59.650Z,852
2023-04-18T08:35:43.236Z,847.4
2023-04-18T08:37:26.960Z,846.5
2023-04-18T08:39:10.673Z,842.6
2023-04-18T08:40:54.423Z,837.8
2023-04-18T08:42:38.048Z,833.7
2023-04-18T08:44:21.780Z,829.9
2023-04-18T08:46:05.448Z,829.4
2023-04-18T08:47:49.161Z,833.7
2023-04-18T08:49:32.852Z,837.9
2023-04-18T08:51:16.541Z,839.7
2023-04-18T08:53:00.274Z,839.9
2023-04-18T08:54:43.944Z,838.8
2023-04-18T08:56:27.715Z,835.6
2023-04-18T08:58:11.384Z,836.8
2023-04-18T08:59:55.223Z,834.6
2023-04-18T09:01:38.779Z,832.7
2023-04-18T09:03:22.479Z,833.6
2023-04-18T09:05:06.151Z,832.3
2023-04-18T09:06:49.876Z,834.5
2023-04-18T09:08:33.573Z,832.7
2023-04-18T09:10:17.275Z,832.8
2023-04-18T09:12:00.993Z,833.9
2023-04-18T09:13:44.708Z,833.4
2023-04-18T09:15:28.373Z,835
2023-04-18T09:17:12.088Z,832.8
2023-04-18T09:18:55.792Z,830.6
2023-04-18T09:20:39.512Z,828.3
2023-04-18T09:22:23.242Z,828.4
2023-04-18T09:24:06.898Z,819
2023-04-18T09:25:50.639Z,805
2023-04-18T09:27:34.312Z,796
2023-04-18T09:29:18.145Z,792.7
2023-04-18T09:31:01.733Z,798.9
2023-04-18T09:32:45.677Z,805.1
2023-04-18T09:34:29.143Z,810.1
2023-04-18T09:36:12.903Z,802.6
2023-04-18T09:37:56.542Z,795.8
2023-04-18T09:39:40.249Z,798
2023-04-18T09:41:23.949Z,800.6
2023-04-18T09:43:07.657Z,804
2023-04-18T09:44:51.361Z,800.6
2023-04-18T09:46:35.037Z,795.2
2023-04-18T09:48:18.759Z,794
2023-04-18T09:50:02.459Z,792.1
2023-04-18T09:51:46.176Z,791.7
2023-04-18T09:53:29.866Z,791.5
2023-04-18T09:55:13.561Z,787.6
2023-04-18T09:56:57.270Z,787.8
2023-04-18T09:58:41.148Z,785.4
2023-04-18T10:00:24.665Z,780.3
2023-04-18T10:02:08.368Z,781.5
2023-04-18T10:03:52.077Z,781.7
2023-04-18T10:05:35.768Z,782.5
2023-04-18T10:07:19.444Z,782.4
2023-04-18T10:09:03.163Z,784.6
2023-04-18T10:10:46.873Z,783
2023-04-18T10:12:30.558Z,786.4
2023-04-18T10:14:14.273Z,789
2023-04-18T10:15:57.967Z,789.1
2023-04-18T10:17:41.702Z,789.1
2023-04-18T10:19:25.370Z,792.4
2023-04-18T10:21:09.065Z,796.3
2023-04-18T10:22:52.785Z,800.6
2023-04-18T10:24:36.473Z,801.6
2023-04-18T10:26:20.221Z,801.7
2023-04-18T10:28:03.919Z,803.1
2023-04-18T10:29:47.634Z,804.9
2023-04-18T10:31:31.330Z,804
2023-04-18T10:33:15.089Z,805.4
2023-04-18T10:34:58.688Z,806.1
2023-04-18T10:36:42.419Z,810.7
2023-04-18T10:38:26.174Z,815
2023-04-18T10:40:09.826Z,819.8
2023-04-18T10:41:53.516Z,825
2023-04-18T10:43:37.384Z,829.6
2023-04-18T10:45:20.934Z,828.2
2023-04-18T10:47:04.627Z,831.5
2023-04-18T10:48:48.277Z,832.6
2023-04-18T10:50:31.988Z,830.7
2023-04-18T10:52:15.695Z,831
2023-04-18T10:53:59.373Z,833
2023-04-18T10:55:43.138Z,834
2023-04-18T10:57:26.876Z,835.7
2023-04-18T10:59:10.510Z,839.1
2023-04-18T11:00:54.198Z,844.2
2023-04-18T11:02:37.931Z,848.5
2023-04-18T11:04:21.753Z,845.9
2023-04-18T11:06:05.310Z,841.5
2023-04-18T11:09:32.698Z,846.5
2023-04-18T11:11:16.411Z,850.6
2023-04-18T11:13:00.112Z,848.4
2023-04-18T11:14:44.121Z,849.1
2023-04-18T11:16:27.642Z,851.3
2023-04-18T11:18:11.249Z,851.7
2023-04-18T11:19:54.984Z,849.3
2023-04-18T11:21:38.635Z,848.9
2023-04-18T11:23:22.351Z,847.2
2023-04-18T11:25:06.072Z,847
2023-04-18T11:26:49.706Z,849.2
2023-04-18T11:28:33.542Z,849.6
2023-04-18T11:30:17.112Z,851.4
2023-04-18T11:32:00.821Z,850.8
2023-04-18T11:33:44.524Z,853.7
2023-04-18T11:35:28.218Z,854.7
2023-04-18T11:37:11.914Z,852
2023-04-18T11:38:55.609Z,852.9
2023-04-18T11:40:39.448Z,852.8
2023-04-18T11:44:06.718Z,853.2
2023-04-18T11:45:50.418Z,853
2023-04-18T11:47:34.130Z,851.9
2023-04-18T11:49:17.798Z,850.3
2023-04-18T11:51:01.511Z,850.4
2023-04-18T11:52:45.212Z,852.5
2023-04-18T11:54:28.913Z,851.9
2023-04-18T11:56:12.628Z,852.8
2023-04-18T11:57:56.428Z,855.7
2023-04-18T11:59:40.031Z,855.2
2023-04-18T12:01:23.753Z,850.4
2023-04-18T12:03:07.470Z,848.7
2023-04-18T12:04:51.187Z,849.3
2023-04-18T12:06:34.943Z,853.5
2023-04-18T12:08:18.613Z,857.5
2023-04-18T12:10:02.296Z,858.7
2023-04-18T12:11:45.943Z,861.6
2023-04-18T12:13:29.651Z,861.8
2023-04-18T12:15:13.343Z,859.9
2023-04-18T12:16:57.075Z,861.7
2023-04-18T12:18:40.761Z,863.1
2023-04-18T12:22:08.167Z,859.7
2023-04-18T12:23:51.878Z,870.7
2023-04-18T12:25:35.575Z,879.9
2023-04-18T12:27:19.315Z,892.3
2023-04-18T12:29:02.969Z,899.2
2023-04-18T12:30:46.661Z,902.7
2023-04-18T12:32:30.376Z,905.5
2023-04-18T12:34:14.078Z,909.3
2023-04-18T12:35:57.769Z,911.7
2023-04-18T12:37:41.468Z,916
2023-04-18T12:39:25.187Z,919.1
2023-04-18T12:41:08.866Z,924
2023-04-18T12:42:52.578Z,927.2
2023-04-18T12:44:36.286Z,933.1
2023-04-18T12:46:19.992Z,940.1
2023-04-18T12:48:03.687Z,943.1
2023-04-18T12:49:47.383Z,947.5
2023-04-18T12:51:31.101Z,951.5
2023-04-18T12:53:14.799Z,952.4
2023-04-18T12:54:58.492Z,952
2023-04-18T12:58:25.909Z,954.3
2023-04-18T13:00:09.599Z,949.6
2023-04-18T13:01:53.308Z,949.1
2023-04-18T13:03:37.084Z,945.2
2023-04-18T13:05:20.716Z,942.2
2023-04-18T13:07:04.419Z,942.7
2023-04-18T13:08:48.116Z,944.4
2023-04-18T13:10:31.821Z,944.1
2023-04-18T13:13:59.209Z,951.8
2023-04-18T13:15:42.913Z,954.1
2023-04-18T13:17:26.622Z,953.7
2023-04-18T13:19:10.316Z,958.9
2023-04-18T13:20:54.040Z,962.3
2023-04-18T13:22:37.735Z,966.3
2023-04-18T13:24:21.438Z,969.4
2023-04-18T13:26:05.129Z,975.4
2023-04-18T13:27:48.851Z,970.6
2023-04-18T13:29:32.548Z,968.6
2023-04-18T13:31:16.233Z,971.7
2023-04-18T13:32:59.948Z,969.9
2023-04-18T13:34:43.627Z,970.4
2023-04-18T13:36:27.341Z,965.4
2023-04-18T13:38:11.045Z,957.5
2023-04-18T13:39:54.745Z,952
2023-04-18T13:41:38.434Z,948.5
2023-04-18T13:43:22.154Z,946.5
2023-04-18T13:45:05.859Z,944.3
2023-04-18T13:46:49.566Z,946.8
2023-04-18T13:48:33.264Z,947.3
2023-04-18T13:50:16.950Z,945.7
2023-04-18T13:52:00.639Z,943.6
2023-04-18T13:53:44.340Z,945.1
2023-04-18T13:55:28.048Z,945.4
2023-04-18T13:57:11.761Z,941.9
2023-04-18T13:58:55.458Z,941.1
2023-04-18T14:00:39.156Z,939
2023-04-18T14:02:22.867Z,935.3
2023-04-18T14:04:06.575Z,931.7
2023-04-18T14:05:50.314Z,925.8
2023-04-18T14:07:33.979Z,922.4
2023-04-18T14:09:17.680Z,921.7
2023-04-18T14:11:01.380Z,919.5
2023-04-18T14:12:45.083Z,915.7
2023-04-18T14:14:28.764Z,910.6
2023-04-18T14:16:12.483Z,911.9
2023-04-18T14:17:56.192Z,911.6
2023-04-18T14:19:39.885Z,907.7
2023-04-18T14:21:23.566Z,904.3
2023-04-18T14:23:07.282Z,904.2
2023-04-18T14:24:50.976Z,902.4
2023-04-18T14:26:34.689Z,901
2023-04-18T14:28:18.383Z,897.9
2023-04-18T14:30:02.074Z,892.6
2023-04-18T14:31:45.862Z,891
2023-04-18T14:33:29.489Z,892.3
2023-04-18T14:35:13.210Z,892.9
2023-04-18T14:36:56.981Z,890.8
2023-04-18T14:38:40.656Z,888.9
2023-04-18T14:40:24.304Z,888
2023-04-18T14:42:08.067Z,886.6
2023-04-18T14:43:51.715Z,888
2023-04-18T14:45:35.482Z,887.8
2023-04-18T14:47:19.179Z,885.8
2023-04-18T14:49:02.841Z,884.6
2023-04-18T14:50:46.589Z,885.4
2023-04-18T14:52:30.341Z,888.2
2023-04-18T14:54:13.986Z,892.1
2023-04-18T14:55:57.616Z,896.9
2023-04-18T14:57:41.375Z,906.2
2023-04-18T14:59:25.015Z,909.7
2023-04-18T15:01:08.788Z,911.8
2023-04-18T15:02:52.409Z,915
2023-04-18T15:04:36.117Z,920.5
2023-04-18T15:06:19.823Z,927
2023-04-18T15:08:03.528Z,927.9
2023-04-18T15:09:47.293Z,931.8
2023-04-18T15:11:30.916Z,935.1
2023-04-18T15:13:14.620Z,938.9
2023-04-18T15:14:58.303Z,942
2023-04-18T15:16:42.094Z,945.2
2023-04-18T15:18:25.735Z,946.3
2023-04-18T15:20:09.434Z,952.6
2023-04-18T15:21:53.127Z,958
2023-04-18T15:23:36.864Z,966
2023-04-18T15:25:20.538Z,969.2
2023-04-18T15:27:04.328Z,971.5
2023-04-18T15:28:47.942Z,978.9
2023-04-18T15:30:31.678Z,978.4
2023-04-18T15:32:15.436Z,981.9
2023-04-18T15:33:59.051Z,1001
2023-04-18T15:35:42.740Z,1018.3
2023-04-18T15:37:26.459Z,1024.4
2023-04-18T15:39:10.187Z,1024.9
2023-04-18T15:40:53.910Z,1030.2
2023-04-18T15:42:37.581Z,1039.1
2023-04-18T15:44:21.253Z,1047.7
2023-04-18T15:46:04.961Z,1052.7
2023-04-18T15:47:48.672Z,1060.1
2023-04-18T15:49:32.369Z,1066.6
2023-04-18T15:51:16.066Z,1096.9
2023-04-18T15:52:59.783Z,1130.9
2023-04-18T15:54:43.466Z,1135.4
2023-04-18T15:56:27.153Z,1204.6
2023-04-18T15:58:10.868Z,1211.8
2023-04-18T15:59:54.558Z,1212.4
2023-04-18T16:01:38.294Z,1216.8
2023-04-18T16:03:21.988Z,1214.3
2023-04-18T16:05:05.697Z,1207.6
2023-04-18T16:06:49.389Z,1209.6
2023-04-18T16:08:33.090Z,1214.9
2023-04-18T16:10:16.818Z,1218.7
2023-04-18T16:12:00.492Z,1225
2023-04-18T16:13:44.213Z,1230
2023-04-18T16:15:27.902Z,1234.9
2023-04-18T16:17:11.581Z,1240.3
2023-04-18T16:18:55.381Z,1243.5
2023-04-18T16:20:38.996Z,1244
2023-04-18T16:22:22.705Z,1242.3
2023-04-18T16:24:06.393Z,1236.8
2023-04-18T16:25:50.095Z,1235.9
2023-04-18T16:27:33.799Z,1234.3
2023-04-18T16:29:17.525Z,1234.5
2023-04-18T16:31:01.194Z,1203
2023-04-18T16:32:44.910Z,1119.2
2023-04-18T16:34:28.676Z,1120.6
2023-04-18T16:36:12.346Z,1129.5
2023-04-18T16:37:56.025Z,1136.4
2023-04-18T16:39:39.710Z,1143.8
2023-04-18T16:41:23.423Z,1149
2023-04-18T16:43:07.134Z,1150.3
2023-04-18T16:44:50.873Z,1154.5
2023-04-18T16:46:34.528Z,1155.2
2023-04-18T16:48:18.248Z,1157.5
2023-04-18T16:50:01.932Z,1158
2023-04-18T16:51:45.815Z,1163.6
2023-04-18T16:53:29.427Z,1178.8
2023-04-18T16:55:13.051Z,1184.2
2023-04-18T16:56:56.779Z,1182.3
2023-04-18T16:58:40.472Z,1180.4
2023-04-18T17:00:24.150Z,1176.1
2023-04-18T17:02:07.869Z,1177.1
2023-04-18T17:03:51.566Z,1178.4
2023-04-18T17:05:35.263Z,1183.7
2023-04-18T17:07:19.043Z,1180.7
2023-04-18T17:09:02.723Z,1180.4
2023-04-18T17:10:46.435Z,1186.5
2023-04-18T17:12:30.090Z,1194.5
2023-04-18T17:14:13.778Z,1197
2023-04-18T17:15:57.476Z,1202.2
2023-04-18T17:17:41.182Z,1209.8
2023-04-18T17:19:24.923Z,1216.7
2023-04-18T17:21:08.581Z,1223.1
2023-04-18T17:22:52.327Z,1230.1
2023-04-18T17:24:36.100Z,1233.2
2023-04-18T17:26:19.764Z,1233.8
2023-04-18T17:28:03.445Z,1241.2
2023-04-18T17:29:47.179Z,1250.3
2023-04-18T17:31:30.813Z,1251.2
2023-04-18T17:33:14.533Z,1251.5
2023-04-18T17:34:58.341Z,1250.8
2023-04-18T17:36:41.930Z,1253
2023-04-18T17:38:25.643Z,1253.1
2023-04-18T17:40:09.371Z,1254.3
2023-04-18T17:41:53.047Z,1251
2023-04-18T17:43:36.755Z,1248.4
2023-04-18T17:45:20.434Z,1248.7
2023-04-18T17:47:04.209Z,1251.9
2023-04-18T17:48:47.951Z,1253.9
2023-04-18T17:50:31.548Z,1250.9
2023-04-18T17:52:15.256Z,1248.6
2023-04-18T17:53:59.028Z,1250.5
2023-04-18T17:55:42.673Z,1249.1
2023-04-18T17:57:26.423Z,1242.5
2023-04-18T17:59:10.089Z,1240.4
2023-04-18T18:00:53.786Z,1240.9
2023-04-18T18:02:37.472Z,1243.8
2023-04-18T18:04:21.180Z,1244.8
2023-04-18T18:06:04.904Z,1241.3
2023-04-18T18:07:48.590Z,1235.4
2023-04-18T18:09:32.300Z,1230.7
2023-04-18T18:11:16.153Z,1223.1
2023-04-18T18:12:59.697Z,1220.9
2023-04-18T18:14:43.422Z,1220.5
2023-04-18T18:16:27.085Z,1218.3
2023-04-18T18:18:10.799Z,1216.3
2023-04-18T18:19:54.491Z,1215.8
2023-04-18T18:21:38.193Z,1214
2023-04-18T18:23:21.894Z,1214
2023-04-18T18:25:05.607Z,1210.5
2023-04-18T18:26:49.284Z,1208.7
2023-04-18T18:28:33.014Z,1206.8
2023-04-18T18:30:16.799Z,1210
2023-04-18T18:32:00.392Z,1212.7
2023-04-18T18:33:44.112Z,1217.7
2023-04-18T18:35:27.793Z,1213.8
2023-04-18T18:37:11.507Z,1208.4
2023-04-18T18:38:55.213Z,1209.5
2023-04-18T18:40:38.913Z,1209.3
2023-04-18T18:42:22.614Z,1210.3
2023-04-18T18:44:06.333Z,1211.9
2023-04-18T18:45:50.108Z,1210.9
2023-04-18T18:47:33.750Z,1209.5
2023-04-18T18:49:17.482Z,1210.9
2023-04-18T18:51:01.129Z,1209.5
2023-04-18T18:52:44.833Z,1210.1
2023-04-18T18:54:28.526Z,1210.8
2023-04-18T18:56:12.322Z,1210.4
2023-04-18T18:57:55.936Z,1211
2023-04-18T18:59:39.620Z,1209.5
2023-04-18T19:01:23.359Z,1206.1
2023-04-18T19:03:07.028Z,1195.1
2023-04-18T19:04:50.765Z,1189.2
2023-04-18T19:06:34.444Z,1187.9
2023-04-18T19:08:18.174Z,1186.6
2023-04-18T19:10:01.855Z,1184.8
2023-04-18T19:11:45.573Z,1185
2023-04-18T19:13:29.275Z,1188.5
2023-04-18T19:15:12.982Z,1188.2
2023-04-18T19:16:56.706Z,1184.7
2023-04-18T19:18:40.463Z,1185.9
2023-04-18T19:20:24.096Z,1186.1
2023-04-18T19:22:07.770Z,1187.6
2023-04-18T19:23:51.570Z,1187.7
2023-04-18T19:25:35.200Z,1190.3
2023-04-18T19:27:18.885Z,1190.8
2023-04-18T19:29:02.563Z,1186.7
2023-04-18T19:30:46.289Z,1188.8
2023-04-18T19:32:30.085Z,1193.2
2023-04-18T19:34:13.695Z,1192.9
2023-04-18T19:35:57.395Z,1196.1
2023-04-18T19:37:41.102Z,1197.8
2023-04-18T19:39:24.805Z,1196.7
2023-04-18T19:41:08.504Z,1195.5
2023-04-18T19:42:52.194Z,1191.6
2023-04-18T19:44:35.928Z,1191.4
2023-04-18T19:46:19.728Z,1196.5
2023-04-18T19:48:03.408Z,1200.6
2023-04-18T19:49:47.080Z,1202.9
2023-04-18T19:51:30.740Z,1202.3
2023-04-18T19:53:14.450Z,1202.9
2023-04-18T19:54:58.123Z,1204.4
2023-04-18T19:56:41.880Z,1207.6
2023-04-18T19:58:25.562Z,1211.9
2023-04-18T20:00:09.245Z,1213.4
2023-04-18T20:01:52.953Z,1216.5
2023-04-18T20:03:36.684Z,1217.3
2023-04-18T20:05:20.396Z,1221.6
2023-04-18T20:07:04.077Z,1230.7
2023-04-18T20:08:47.757Z,1238.9
2023-04-18T20:10:31.464Z,1247.2
2023-04-18T20:12:15.162Z,1255.9
2023-04-18T20:13:58.861Z,1260.4
2023-04-18T20:15:42.617Z,1265.3
2023-04-18T20:17:26.269Z,1268
2023-04-18T20:19:09.951Z,1270.8
2023-04-18T20:20:53.684Z,1275.9
2023-04-18T20:22:37.379Z,1278
2023-04-18T20:24:21.083Z,1279.7
2023-04-18T20:26:04.844Z,1279.3
2023-04-18T20:27:48.481Z,1280.3
2023-04-18T20:29:32.186Z,1280.9
2023-04-18T20:31:15.933Z,1281.1
2023-04-18T20:32:59.604Z,1282.2
2023-04-18T20:34:43.300Z,1283.8
2023-04-18T20:36:27.107Z,1283.3
2023-04-18T20:38:10.777Z,1286.2
2023-04-18T20:39:54.465Z,1288.9
2023-04-18T20:41:38.093Z,1290.4
2023-04-18T20:43:21.808Z,1286.2
2023-04-18T20:45:05.495Z,1288.3
2023-04-18T20:46:49.266Z,1292.2
2023-04-18T20:48:32.916Z,1294
2023-04-18T20:50:16.630Z,1293.7
2023-04-18T20:52:00.328Z,1295.7
2023-04-18T20:53:44.031Z,1296.3
2023-04-18T20:55:27.748Z,1295
2023-04-18T20:57:11.432Z,1299.8
2023-04-18T20:58:55.145Z,1303.4
2023-04-18T21:00:38.849Z,1302.7
2023-04-18T21:02:22.547Z,1302
2023-04-18T21:04:06.228Z,1305.4
2023-04-18T21:05:49.941Z,1307.5
2023-04-18T21:07:33.646Z,1308.2
2023-04-18T21:09:17.370Z,1307.7
2023-04-18T21:11:01.027Z,1306.3
2023-04-18T21:12:44.730Z,1302.8
2023-04-18T21:14:28.441Z,1298.2
2023-04-18T21:16:12.180Z,1294.7
2023-04-18T21:17:55.837Z,1293.4
2023-04-18T21:19:39.535Z,1294.3
2023-04-18T21:21:23.258Z,1288
2023-04-18T21:23:06.972Z,1282.7
2023-04-18T21:24:50.646Z,1281.3
2023-04-18T21:26:34.359Z,1276.9
2023-04-18T21:28:18.105Z,1273.9
2023-04-18T21:30:01.769Z,1268.2
2023-04-18T21:31:45.460Z,1262.5
2023-04-18T21:33:29.175Z,1255.6
2023-04-18T21:35:12.857Z,1249.8
2023-04-18T21:36:56.582Z,1246.8
2023-04-18T21:38:40.314Z,1245.8
2023-04-18T21:40:24.009Z,1243.7
2023-04-18T21:42:07.690Z,1237.9
2023-04-18T21:43:51.400Z,1230.9
2023-04-18T21:45:35.116Z,1222.6
2023-04-18T21:47:18.773Z,1216.9
2023-04-18T21:49:02.556Z,1212.5
2023-04-18T21:50:46.222Z,1211
2023-04-18T21:52:29.938Z,1209
2023-04-18T21:54:13.604Z,1208.9
2023-04-18T21:55:57.313Z,1203.2
2023-04-18T21:57:41.093Z,1196.6
2023-04-18T21:59:24.736Z,1187.9
2023-04-18T22:01:08.466Z,1176.5
2023-04-18T22:02:52.182Z,1169.2
2023-04-18T22:04:35.853Z,1162.6
2023-04-18T22:06:19.703Z,1158.8
2023-04-18T22:08:03.215Z,1159
2023-04-18T22:09:46.997Z,1154.8
2023-04-18T22:11:30.625Z,1148.1
2023-04-18T22:13:14.348Z,1141.1
2023-04-18T22:14:58.047Z,1135.8
2023-04-18T22:16:41.760Z,1129.3
2023-04-18T22:18:25.434Z,1124.9
2023-04-18T22:20:09.138Z,1121.6
2023-04-18T22:21:52.845Z,1119.3
2023-04-18T22:23:36.584Z,1114.7
2023-04-18T22:25:20.243Z,1109.1
2023-04-18T22:27:04.029Z,1102.7